createdAt,value
2018-07-09T00:00:06.825Z,16.18
2018-07-09T00:01:06.981Z,16.18
2018-07-09T00:02:07.132Z,16.27
2018-07-09T00:03:07.285Z,16.30
2018-07-09T00:04:07.440Z,16.27
2018-07-09T00:05:07.596Z,16.26
2018-07-09T00:06:07.781Z,16.18
2018-07-09T00:07:07.904Z,16.03
2018-07-09T00:08:08.054Z,16.14
2018-07-09T00:09:08.208Z,15.92
2018-07-09T00:10:08.363Z,15.96
2018-07-09T00:11:08.514Z,16.07
2018-07-09T00:12:08.669Z,16.06
2018-07-09T00:13:08.823Z,16.00
2018-07-09T00:14:08.990Z,15.89
2018-07-09T00:15:09.139Z,15.82
2018-07-09T00:16:09.293Z,15.85
2018-07-09T00:17:09.449Z,15.79
2018-07-09T00:18:09.602Z,15.93
2018-07-09T00:19:09.757Z,15.94
2018-07-09T00:20:09.906Z,15.86
2018-07-09T00:21:10.063Z,15.94
2018-07-09T00:22:10.216Z,15.85
2018-07-09T00:23:10.371Z,15.94
2018-07-09T00:24:10.525Z,15.94
2018-07-09T00:25:10.678Z,16.01
2018-07-09T00:26:10.831Z,15.86
2018-07-09T00:27:10.986Z,15.82
2018-07-09T00:28:11.138Z,15.79
2018-07-09T00:29:11.294Z,15.84
2018-07-09T00:30:11.445Z,15.86
2018-07-09T00:31:11.599Z,15.82
2018-07-09T00:32:11.800Z,15.88
2018-07-09T00:33:11.907Z,15.79
2018-07-09T00:34:12.061Z,15.78
2018-07-09T00:35:12.215Z,15.61
2018-07-09T00:36:12.369Z,15.63
2018-07-09T00:37:12.521Z,15.59
2018-07-09T00:38:12.674Z,15.59
2018-07-09T00:39:12.828Z,15.61
2018-07-09T00:40:12.985Z,15.61
2018-07-09T00:41:13.135Z,15.51
2018-07-09T00:42:13.287Z,15.56
2018-07-09T00:43:13.442Z,15.59
2018-07-09T00:44:13.596Z,15.56
2018-07-09T00:45:13.753Z,15.54
2018-07-09T00:46:13.903Z,15.39
2018-07-09T00:47:14.064Z,15.46
2018-07-09T00:48:14.212Z,15.43
2018-07-09T00:49:14.366Z,15.39
2018-07-09T00:50:14.520Z,15.33
2018-07-09T00:51:14.678Z,15.27
2018-07-09T00:52:14.828Z,15.39
2018-07-09T00:53:14.979Z,15.28
2018-07-09T00:54:15.135Z,15.28
2018-07-09T00:55:15.286Z,15.30
2018-07-09T00:56:15.440Z,15.30
2018-07-09T00:57:15.596Z,15.28
2018-07-09T00:58:15.745Z,15.27
2018-07-09T00:59:15.900Z,15.27
2018-07-09T01:00:16.053Z,15.35
2018-07-09T01:01:16.205Z,15.33
2018-07-09T01:02:16.357Z,15.30
2018-07-09T01:03:16.518Z,15.26
2018-07-09T01:04:16.666Z,15.19
2018-07-09T01:05:16.817Z,15.09
2018-07-09T01:06:16.973Z,15.11
2018-07-09T01:07:17.127Z,15.21
2018-07-09T01:08:17.280Z,15.15
2018-07-09T01:09:17.428Z,15.09
2018-07-09T01:10:17.587Z,15.12
2018-07-09T01:11:17.742Z,15.15
2018-07-09T01:12:17.888Z,15.06
2018-07-09T01:13:18.048Z,15.11
2018-07-09T01:14:18.196Z,15.13
2018-07-09T01:15:18.349Z,15.21
2018-07-09T01:16:18.501Z,15.26
2018-07-09T01:17:18.652Z,15.15
2018-07-09T01:18:18.808Z,15.09
2018-07-09T01:19:18.960Z,15.11
2018-07-09T01:20:19.167Z,15.15
2018-07-09T01:21:19.269Z,15.02
2018-07-09T01:22:19.420Z,15.06
2018-07-09T01:23:19.575Z,15.09
2018-07-09T01:24:19.727Z,15.02
2018-07-09T01:25:19.886Z,15.01
2018-07-09T01:26:20.039Z,14.95
2018-07-09T01:27:20.192Z,15.05
2018-07-09T01:28:20.348Z,14.88
2018-07-09T01:29:20.493Z,14.90
2018-07-09T01:30:20.647Z,14.86
2018-07-09T01:31:20.802Z,14.93
2018-07-09T01:32:20.955Z,14.84
2018-07-09T01:33:21.108Z,14.81
2018-07-09T01:34:21.262Z,14.78
2018-07-09T01:35:21.415Z,14.74
2018-07-09T01:36:21.567Z,14.71
2018-07-09T01:37:21.720Z,14.84
2018-07-09T01:38:21.873Z,14.84
2018-07-09T01:39:22.028Z,14.62
2018-07-09T01:40:22.178Z,14.61
2018-07-09T01:41:22.333Z,14.54
2018-07-09T01:42:22.484Z,14.54
2018-07-09T01:43:22.640Z,14.61
2018-07-09T01:44:22.792Z,14.61
2018-07-09T01:45:22.945Z,14.67
2018-07-09T01:46:23.099Z,14.56
2018-07-09T01:47:23.252Z,14.61
2018-07-09T01:48:23.402Z,14.57
2018-07-09T01:49:23.557Z,14.54
2018-07-09T01:50:23.709Z,14.54
2018-07-09T01:51:23.863Z,14.47
2018-07-09T01:52:24.017Z,14.56
2018-07-09T01:53:24.177Z,14.57
2018-07-09T01:54:24.323Z,14.62
2018-07-09T01:55:24.474Z,14.50
2018-07-09T01:56:24.629Z,14.61
2018-07-09T01:57:24.781Z,14.60
2018-07-09T01:58:24.932Z,14.67
2018-07-09T01:59:25.086Z,14.67
2018-07-09T02:00:25.240Z,14.81
2018-07-09T02:01:25.393Z,14.57
2018-07-09T02:02:25.548Z,14.49
2018-07-09T02:03:25.700Z,14.54
2018-07-09T02:04:25.854Z,14.53
2018-07-09T02:05:26.007Z,14.39
2018-07-09T02:06:26.163Z,14.54
2018-07-09T02:07:26.315Z,14.50
2018-07-09T02:08:26.470Z,14.42
2018-07-09T02:09:26.625Z,14.44
2018-07-09T02:10:26.779Z,14.43
2018-07-09T02:11:26.934Z,14.37
2018-07-09T02:12:27.087Z,14.46
2018-07-09T02:13:27.239Z,14.42
2018-07-09T02:14:27.392Z,14.37
2018-07-09T02:15:27.546Z,14.43
2018-07-09T02:16:27.697Z,14.37
2018-07-09T02:17:27.880Z,14.42
2018-07-09T02:18:28.035Z,14.32
2018-07-09T02:19:28.183Z,14.37
2018-07-09T02:20:28.367Z,14.39
2018-07-09T02:21:28.491Z,14.42
2018-07-09T02:22:28.643Z,14.43
2018-07-09T02:23:28.796Z,14.47
2018-07-09T02:24:28.948Z,14.43
2018-07-09T02:25:29.100Z,14.49
2018-07-09T02:26:29.255Z,14.44
2018-07-09T02:27:29.409Z,14.50
2018-07-09T02:28:29.562Z,14.42
2018-07-09T02:29:29.715Z,14.37
2018-07-09T02:30:29.870Z,14.31
2018-07-09T02:31:30.023Z,14.34
2018-07-09T02:32:30.176Z,14.32
2018-07-09T02:33:30.328Z,14.28
2018-07-09T02:34:30.481Z,14.24
2018-07-09T02:35:30.639Z,14.29
2018-07-09T02:36:30.785Z,14.20
2018-07-09T02:37:30.940Z,14.20
2018-07-09T02:38:31.091Z,14.19
2018-07-09T02:39:31.244Z,14.29
2018-07-09T02:40:31.398Z,14.13
2018-07-09T02:41:31.552Z,14.13
2018-07-09T02:42:31.707Z,14.13
2018-07-09T02:43:31.855Z,14.10
2018-07-09T02:44:32.011Z,14.14
2018-07-09T02:45:32.163Z,14.07
2018-07-09T02:46:32.318Z,14.06
2018-07-09T02:47:32.471Z,13.88
2018-07-09T02:48:32.620Z,13.92
2018-07-09T02:49:32.774Z,13.84
2018-07-09T02:50:32.927Z,13.74
2018-07-09T02:51:33.078Z,13.89
2018-07-09T02:52:33.233Z,13.84
2018-07-09T02:53:33.386Z,13.96
2018-07-09T02:54:33.543Z,13.87
2018-07-09T02:55:33.695Z,13.81
2018-07-09T02:56:33.863Z,13.70
2018-07-09T02:57:33.999Z,13.79
2018-07-09T02:58:34.157Z,13.79
2018-07-09T02:59:34.305Z,13.74
2018-07-09T03:00:34.458Z,13.74
2018-07-09T03:01:34.613Z,13.74
2018-07-09T03:02:34.763Z,13.74
2018-07-09T03:03:34.920Z,13.71
2018-07-09T03:04:35.075Z,13.65
2018-07-09T03:05:35.228Z,13.63
2018-07-09T03:06:35.382Z,13.61
2018-07-09T03:07:35.532Z,13.70
2018-07-09T03:08:35.684Z,13.62
2018-07-09T03:09:35.839Z,13.71
2018-07-09T03:10:35.991Z,13.65
2018-07-09T03:11:36.146Z,13.58
2018-07-09T03:12:36.301Z,13.56
2018-07-09T03:13:36.449Z,13.55
2018-07-09T03:14:36.605Z,13.59
2018-07-09T03:15:36.759Z,13.56
2018-07-09T03:16:36.910Z,13.55
2018-07-09T03:17:37.063Z,13.58
2018-07-09T03:18:37.214Z,13.61
2018-07-09T03:19:37.367Z,13.59
2018-07-09T03:20:37.519Z,13.62
2018-07-09T03:21:37.672Z,13.56
2018-07-09T03:22:37.822Z,13.56
2018-07-09T03:23:37.975Z,13.40
2018-07-09T03:24:38.130Z,13.54
2018-07-09T03:25:38.282Z,13.41
2018-07-09T03:26:38.432Z,13.54
2018-07-09T03:27:38.588Z,13.55
2018-07-09T03:28:38.737Z,13.54
2018-07-09T03:29:38.933Z,13.56
2018-07-09T03:30:39.045Z,13.55
2018-07-09T03:31:39.195Z,13.58
2018-07-09T03:32:39.347Z,13.58
2018-07-09T03:33:39.532Z,13.55
2018-07-09T03:34:39.654Z,13.54
2018-07-09T03:35:39.808Z,13.51
2018-07-09T03:36:39.958Z,13.49
2018-07-09T03:37:40.110Z,13.43
2018-07-09T03:38:40.263Z,13.36
2018-07-09T03:39:40.417Z,13.40
2018-07-09T03:40:40.570Z,13.33
2018-07-09T03:41:40.721Z,13.29
2018-07-09T03:42:40.876Z,13.37
2018-07-09T03:43:41.026Z,13.44
2018-07-09T03:44:41.179Z,13.41
2018-07-09T03:45:41.330Z,13.37
2018-07-09T03:46:41.491Z,13.36
2018-07-09T03:47:41.636Z,13.33
2018-07-09T03:48:41.787Z,13.38
2018-07-09T03:49:41.943Z,13.30
2018-07-09T03:50:42.095Z,13.36
2018-07-09T03:51:42.248Z,13.30
2018-07-09T03:52:42.401Z,13.46
2018-07-09T03:53:42.555Z,13.44
2018-07-09T03:54:42.705Z,13.43
2018-07-09T03:55:42.859Z,13.52
2018-07-09T03:56:43.013Z,13.52
2018-07-09T03:57:43.166Z,13.47
2018-07-09T03:58:43.320Z,13.55
2018-07-09T03:59:43.471Z,13.55
2018-07-09T04:00:43.626Z,13.62
2018-07-09T04:01:43.774Z,13.59
2018-07-09T04:02:43.925Z,13.65
2018-07-09T04:03:44.082Z,13.67
2018-07-09T04:04:44.232Z,13.74
2018-07-09T04:05:44.384Z,13.83
2018-07-09T04:06:44.536Z,13.81
2018-07-09T04:07:44.687Z,13.92
2018-07-09T04:08:44.839Z,13.77
2018-07-09T04:09:44.995Z,13.79
2018-07-09T04:10:45.145Z,13.79
2018-07-09T04:11:45.300Z,13.81
2018-07-09T04:12:45.456Z,13.67
2018-07-09T04:13:45.604Z,13.73
2018-07-09T04:14:45.761Z,13.65
2018-07-09T04:15:45.912Z,13.71
2018-07-09T04:16:46.063Z,13.80
2018-07-09T04:17:46.214Z,13.74
2018-07-09T04:18:46.368Z,13.74
2018-07-09T04:19:46.521Z,13.76
2018-07-09T04:20:46.681Z,13.77
2018-07-09T04:21:46.831Z,13.73
2018-07-09T04:22:46.981Z,13.73
2018-07-09T04:23:47.132Z,13.76
2018-07-09T04:24:47.285Z,13.81
2018-07-09T04:25:47.440Z,13.81
2018-07-09T04:26:47.609Z,13.94
2018-07-09T04:27:47.735Z,13.94
2018-07-09T04:28:47.887Z,13.87
2018-07-09T04:29:48.039Z,13.87
2018-07-09T04:30:48.192Z,13.98
2018-07-09T04:31:48.401Z,13.94
2018-07-09T04:32:48.497Z,14.10
2018-07-09T04:33:48.650Z,14.04
2018-07-09T04:34:48.803Z,14.02
2018-07-09T04:35:48.955Z,14.07
2018-07-09T04:36:49.109Z,14.12
2018-07-09T04:37:49.331Z,14.14
2018-07-09T04:38:49.413Z,14.20
2018-07-09T04:39:49.567Z,14.46
2018-07-09T04:40:49.720Z,14.44
2018-07-09T04:41:49.876Z,14.52
2018-07-09T04:42:50.032Z,14.52
2018-07-09T04:43:50.184Z,14.62
2018-07-09T04:44:50.337Z,14.64
2018-07-09T04:45:50.489Z,14.64
2018-07-09T04:46:50.644Z,14.80
2018-07-09T04:47:50.796Z,14.56
2018-07-09T04:48:50.949Z,14.61
2018-07-09T04:49:51.110Z,14.53
2018-07-09T04:50:51.258Z,14.50
2018-07-09T04:51:51.412Z,14.52
2018-07-09T04:52:51.567Z,14.57
2018-07-09T04:53:51.719Z,14.62
2018-07-09T04:54:51.872Z,14.54
2018-07-09T04:55:52.027Z,14.69
2018-07-09T04:56:52.186Z,14.74
2018-07-09T04:57:52.337Z,14.71
2018-07-09T04:58:52.488Z,14.67
2018-07-09T04:59:52.641Z,14.64
2018-07-09T05:00:52.794Z,14.80
2018-07-09T05:01:52.946Z,14.83
2018-07-09T05:02:53.097Z,14.80
2018-07-09T05:03:53.252Z,14.86
2018-07-09T05:04:53.407Z,14.83
2018-07-09T05:05:53.561Z,14.90
2018-07-09T05:06:53.713Z,14.81
2018-07-09T05:07:53.880Z,14.88
2018-07-09T05:08:54.024Z,14.81
2018-07-09T05:09:54.175Z,14.90
2018-07-09T05:10:54.332Z,14.83
2018-07-09T05:11:54.481Z,14.83
2018-07-09T05:12:54.637Z,14.81
2018-07-09T05:13:54.787Z,14.98
2018-07-09T05:14:54.942Z,15.05
2018-07-09T05:15:55.094Z,15.09
2018-07-09T05:16:55.250Z,15.19
2018-07-09T05:17:55.400Z,15.06
2018-07-09T05:18:55.554Z,15.23
2018-07-09T05:19:55.709Z,15.38
2018-07-09T05:20:55.865Z,15.54
2018-07-09T05:21:56.016Z,15.64
2018-07-09T05:22:56.169Z,15.74
2018-07-09T05:23:56.329Z,15.89
2018-07-09T05:24:56.479Z,15.94
2018-07-09T05:25:56.631Z,15.96
2018-07-09T05:26:56.785Z,16.00
2018-07-09T05:27:56.943Z,15.99
2018-07-09T05:28:57.092Z,16.04
2018-07-09T05:29:57.247Z,16.14
2018-07-09T05:30:57.402Z,16.07
2018-07-09T05:31:57.553Z,16.11
2018-07-09T05:32:57.718Z,16.18
2018-07-09T05:33:57.861Z,16.30
2018-07-09T05:34:58.017Z,16.27
2018-07-09T05:35:58.170Z,16.26
2018-07-09T05:36:58.321Z,16.23
2018-07-09T05:37:58.478Z,16.41
2018-07-09T05:38:58.637Z,16.42
2018-07-09T05:39:58.822Z,16.52
2018-07-09T05:40:58.943Z,16.71
2018-07-09T05:41:59.098Z,16.74
2018-07-09T05:42:59.251Z,16.86
2018-07-09T05:43:59.407Z,16.99
2018-07-09T05:44:59.561Z,17.06
2018-07-09T05:45:59.715Z,17.04
2018-07-09T05:46:59.885Z,17.20
2018-07-09T05:48:00.024Z,17.23
2018-07-09T05:49:00.175Z,17.14
2018-07-09T05:50:00.332Z,17.13
2018-07-09T05:51:00.485Z,17.17
2018-07-09T05:52:00.643Z,17.15
2018-07-09T05:53:00.795Z,17.30
2018-07-09T05:54:00.951Z,17.28
2018-07-09T05:55:01.104Z,17.22
2018-07-09T05:56:01.262Z,17.23
2018-07-09T05:57:01.413Z,17.44
2018-07-09T05:58:01.568Z,17.59
2018-07-09T05:59:01.852Z,17.74
2018-07-09T06:00:01.880Z,17.74
2018-07-09T06:01:02.036Z,17.94
2018-07-09T06:02:02.192Z,18.04
2018-07-09T06:03:02.343Z,18.04
2018-07-09T06:04:02.501Z,18.15
2018-07-09T06:05:02.658Z,18.19
2018-07-09T06:06:02.813Z,18.22
2018-07-09T06:07:02.967Z,18.13
2018-07-09T06:08:03.123Z,18.27
2018-07-09T06:09:03.281Z,18.46
2018-07-09T06:10:03.436Z,18.54
2018-07-09T06:11:03.600Z,18.43
2018-07-09T06:12:03.747Z,18.55
2018-07-09T06:13:03.904Z,18.54
2018-07-09T06:14:04.059Z,18.49
2018-07-09T06:15:04.215Z,18.58
2018-07-09T06:16:04.374Z,18.59
2018-07-09T06:17:04.526Z,18.58
2018-07-09T06:18:04.680Z,18.55
2018-07-09T06:19:04.837Z,18.61
2018-07-09T06:20:04.993Z,18.77
2018-07-09T06:21:05.148Z,18.76
2018-07-09T06:22:05.305Z,18.70
2018-07-09T06:23:05.461Z,18.76
2018-07-09T06:24:05.614Z,18.95
2018-07-09T06:25:05.770Z,18.99
2018-07-09T06:26:05.929Z,19.15
2018-07-09T06:27:06.082Z,19.11
2018-07-09T06:28:06.238Z,19.29
2018-07-09T06:29:06.394Z,19.39
2018-07-09T06:30:06.553Z,19.33
2018-07-09T06:31:06.708Z,19.32
2018-07-09T06:32:06.863Z,19.31
2018-07-09T06:33:07.019Z,19.43
2018-07-09T06:34:07.175Z,19.58
2018-07-09T06:35:07.331Z,19.33
2018-07-09T06:36:07.486Z,19.50
2018-07-09T06:37:07.643Z,19.60
2018-07-09T06:38:07.799Z,19.65
2018-07-09T06:39:07.953Z,19.48
2018-07-09T06:40:08.111Z,19.47
2018-07-09T06:41:08.266Z,19.57
2018-07-09T06:42:08.422Z,19.42
2018-07-09T06:43:08.581Z,19.35
2018-07-09T06:44:08.738Z,19.21
2018-07-09T06:45:08.895Z,19.01
2018-07-09T06:46:09.051Z,18.84
2018-07-09T06:47:09.206Z,18.76
2018-07-09T06:48:09.364Z,18.80
2018-07-09T06:49:09.517Z,18.70
2018-07-09T06:50:09.710Z,18.64
2018-07-09T06:51:09.829Z,18.47
2018-07-09T06:52:09.994Z,18.49
2018-07-09T06:53:10.143Z,18.49
2018-07-09T06:54:10.301Z,18.55
2018-07-09T06:55:10.453Z,18.62
2018-07-09T06:56:10.610Z,18.80
2018-07-09T06:57:10.770Z,18.99
2018-07-09T06:58:10.921Z,18.92
2018-07-09T06:59:11.078Z,18.94
2018-07-09T07:00:11.235Z,18.76
2018-07-09T07:01:11.389Z,18.72
2018-07-09T07:02:11.578Z,18.65
2018-07-09T07:03:11.700Z,18.62
2018-07-09T07:04:11.855Z,18.68
2018-07-09T07:05:12.012Z,18.77
2018-07-09T07:06:12.166Z,18.77
2018-07-09T07:07:12.319Z,18.77
2018-07-09T07:08:12.476Z,18.84
2018-07-09T07:09:12.728Z,18.97
2018-07-09T07:10:12.790Z,18.99
2018-07-09T07:11:12.941Z,19.15
2018-07-09T07:12:13.094Z,19.17
2018-07-09T07:13:13.250Z,19.10
2018-07-09T07:14:13.454Z,19.17
2018-07-09T07:15:13.557Z,19.18
2018-07-09T07:16:13.712Z,19.24
2018-07-09T07:17:13.871Z,19.23
2018-07-09T07:18:14.027Z,19.31
2018-07-09T07:19:14.184Z,19.28
2018-07-09T07:20:14.340Z,19.24
2018-07-09T07:21:14.496Z,19.36
2018-07-09T07:22:14.653Z,19.25
2018-07-09T07:23:14.805Z,19.21
2018-07-09T07:24:14.961Z,19.38
2018-07-09T07:25:15.117Z,19.50
2018-07-09T07:26:15.273Z,19.43
2018-07-09T07:27:15.427Z,19.51
2018-07-09T07:28:15.588Z,19.65
2018-07-09T07:29:15.739Z,19.86
2018-07-09T07:30:15.895Z,19.88
2018-07-09T07:31:16.048Z,19.76
2018-07-09T07:32:16.205Z,19.73
2018-07-09T07:33:16.415Z,19.69
2018-07-09T07:34:16.516Z,19.70
2018-07-09T07:35:16.672Z,19.68
2018-07-09T07:36:16.826Z,19.78
2018-07-09T07:37:16.985Z,19.98
2018-07-09T07:38:17.137Z,19.93
2018-07-09T07:39:17.314Z,19.93
2018-07-09T07:40:17.453Z,19.98
2018-07-09T07:41:17.610Z,19.98
2018-07-09T07:42:17.766Z,19.87
2018-07-09T07:43:17.923Z,19.95
2018-07-09T07:44:18.076Z,20.00
2018-07-09T07:45:18.232Z,20.12
2018-07-09T07:46:18.389Z,20.27
2018-07-09T07:47:18.545Z,20.47
2018-07-09T07:48:18.702Z,20.39
2018-07-09T07:49:18.857Z,20.41
2018-07-09T07:50:19.076Z,20.33
2018-07-09T07:51:19.172Z,20.42
2018-07-09T07:52:19.330Z,20.31
2018-07-09T07:53:19.482Z,20.35
2018-07-09T07:54:19.640Z,20.38
2018-07-09T07:55:19.795Z,20.59
2018-07-09T07:56:19.953Z,20.64
2018-07-09T07:57:20.111Z,20.68
2018-07-09T07:58:20.264Z,20.58
2018-07-09T07:59:20.420Z,20.58
2018-07-09T08:00:20.576Z,20.58
2018-07-09T08:01:20.733Z,20.53
2018-07-09T08:02:20.890Z,20.66
2018-07-09T08:03:21.047Z,20.59
2018-07-09T08:04:21.204Z,20.56
2018-07-09T08:05:21.361Z,20.74
2018-07-09T08:06:21.517Z,20.71
2018-07-09T08:07:21.672Z,20.56
2018-07-09T08:08:21.830Z,20.61
2018-07-09T08:09:22.010Z,20.58
2018-07-09T08:10:22.142Z,20.59
2018-07-09T08:11:47.688Z,20.62
2018-07-09T08:13:29.425Z,20.59
2018-07-09T08:14:22.765Z,20.65
2018-07-09T08:15:22.922Z,20.81
2018-07-09T08:16:23.086Z,20.80
2018-07-09T08:17:23.235Z,20.74
2018-07-09T08:18:23.388Z,20.84
2018-07-09T08:19:23.546Z,20.72
2018-07-09T08:20:23.703Z,20.87
2018-07-09T08:21:23.861Z,20.83
2018-07-09T08:22:24.018Z,20.95
2018-07-09T08:23:24.173Z,20.72
2018-07-09T08:24:24.357Z,20.72
2018-07-09T08:25:24.490Z,20.72
2018-07-09T08:26:24.644Z,20.80
2018-07-09T08:27:24.801Z,20.74
2018-07-09T08:28:24.960Z,20.80
2018-07-09T08:29:25.115Z,20.90
2018-07-09T08:30:25.274Z,21.06
2018-07-09T08:31:25.467Z,21.05
2018-07-09T08:32:25.585Z,21.16
2018-07-09T08:33:25.762Z,21.11
2018-07-09T08:34:25.903Z,21.19
2018-07-09T08:35:26.057Z,21.27
2018-07-09T08:36:26.214Z,21.13
2018-07-09T08:37:26.372Z,21.13
2018-07-09T08:38:26.531Z,21.19
2018-07-09T08:39:26.688Z,21.09
2018-07-09T08:40:26.846Z,20.93
2018-07-09T08:41:27.001Z,21.16
2018-07-09T08:42:27.156Z,21.34
2018-07-09T08:43:27.314Z,21.46
2018-07-09T08:44:27.472Z,21.51
2018-07-09T08:45:27.629Z,21.54
2018-07-09T08:46:27.790Z,21.54
2018-07-09T08:47:28.005Z,21.64
2018-07-09T08:48:28.132Z,21.66
2018-07-09T08:49:28.289Z,21.75
2018-07-09T08:50:28.446Z,21.64
2018-07-09T08:51:28.602Z,21.74
2018-07-09T08:52:28.760Z,21.66
2018-07-09T08:53:28.915Z,21.72
2018-07-09T08:54:29.077Z,22.04
2018-07-09T08:55:29.234Z,22.16
2018-07-09T08:56:29.389Z,22.27
2018-07-09T08:57:29.547Z,22.28
2018-07-09T08:58:29.703Z,22.41
2018-07-09T08:59:29.862Z,22.52
2018-07-09T09:00:30.021Z,22.68
2018-07-09T09:01:30.177Z,22.83
2018-07-09T09:02:30.331Z,22.71
2018-07-09T09:03:30.488Z,22.82
2018-07-09T09:04:30.646Z,22.78
2018-07-09T09:05:30.805Z,22.59
2018-07-09T09:06:30.963Z,22.60
2018-07-09T09:07:31.122Z,22.52
2018-07-09T09:08:31.278Z,22.69
2018-07-09T09:09:31.437Z,22.67
2018-07-09T09:10:31.596Z,22.67
2018-07-09T09:11:31.751Z,22.74
2018-07-09T09:12:31.910Z,22.94
2018-07-09T09:13:32.072Z,22.90
2018-07-09T09:14:32.226Z,22.56
2018-07-09T09:15:32.386Z,22.64
2018-07-09T09:16:32.601Z,22.64
2018-07-09T09:17:32.707Z,22.69
2018-07-09T09:18:32.861Z,22.72
2018-07-09T09:19:33.017Z,22.90
2018-07-09T09:20:33.176Z,22.69
2018-07-09T09:21:33.335Z,22.64
2018-07-09T09:22:33.494Z,22.62
2018-07-09T09:23:33.651Z,22.47
2018-07-09T09:24:33.813Z,22.41
2018-07-09T09:25:34.007Z,22.49
2018-07-09T09:26:34.129Z,22.44
2018-07-09T09:27:34.287Z,22.35
2018-07-09T09:28:34.448Z,22.44
2018-07-09T09:29:34.605Z,22.43
2018-07-09T09:30:34.763Z,22.46
2018-07-09T09:31:35.007Z,22.44
2018-07-09T09:32:35.081Z,22.54
2018-07-09T09:33:35.243Z,22.69
2018-07-09T09:34:35.397Z,22.65
2018-07-09T09:35:35.562Z,22.78
2018-07-09T09:36:35.725Z,22.92
2018-07-09T09:37:35.948Z,22.96
2018-07-09T09:38:36.039Z,22.99
2018-07-09T09:39:36.196Z,22.87
2018-07-09T09:40:36.353Z,22.74
2018-07-09T09:41:36.512Z,22.94
2018-07-09T09:42:36.671Z,23.11
2018-07-09T09:43:36.828Z,23.19
2018-07-09T09:44:36.986Z,23.17
2018-07-09T09:45:37.146Z,23.34
2018-07-09T09:46:37.303Z,23.49
2018-07-09T09:47:37.462Z,23.12
2018-07-09T09:48:37.621Z,23.01
2018-07-09T09:49:37.778Z,22.96
2018-07-09T09:50:37.944Z,22.97
2018-07-09T09:51:38.102Z,23.02
2018-07-09T09:52:38.258Z,23.11
2018-07-09T09:53:38.459Z,23.19
2018-07-09T09:54:38.623Z,23.22
2018-07-09T09:55:38.778Z,23.24
2018-07-09T09:56:38.936Z,23.31
2018-07-09T09:57:39.099Z,23.38
2018-07-09T09:58:39.252Z,23.27
2018-07-09T09:59:39.411Z,23.49
2018-07-09T10:00:39.580Z,23.67
2018-07-09T10:01:39.729Z,23.43
2018-07-09T10:02:39.889Z,23.64
2018-07-09T10:03:40.049Z,23.71
2018-07-09T10:04:40.206Z,23.55
2018-07-09T10:05:40.368Z,23.55
2018-07-09T10:06:40.524Z,23.67
2018-07-09T10:07:40.686Z,23.43
2018-07-09T10:08:40.861Z,23.42
2018-07-09T10:09:41.005Z,23.34
2018-07-09T10:10:41.156Z,23.53
2018-07-09T10:11:41.315Z,23.64
2018-07-09T10:12:41.474Z,23.65
2018-07-09T10:13:41.632Z,23.43
2018-07-09T10:14:41.791Z,23.40
2018-07-09T10:15:41.965Z,23.64
2018-07-09T10:16:42.110Z,23.75
2018-07-09T10:17:42.270Z,23.71
2018-07-09T10:18:42.429Z,23.94
2018-07-09T10:19:42.588Z,24.12
2018-07-09T10:20:42.746Z,24.08
2018-07-09T10:21:42.905Z,24.23
2018-07-09T10:22:43.119Z,24.17
2018-07-09T10:23:43.222Z,24.10
2018-07-09T10:24:43.380Z,23.94
2018-07-09T10:25:43.543Z,23.89
2018-07-09T10:26:43.701Z,23.62
2018-07-09T10:27:43.860Z,23.55
2018-07-09T10:28:44.020Z,23.40
2018-07-09T10:29:44.179Z,23.62
2018-07-09T10:30:44.344Z,23.77
2018-07-09T10:31:44.498Z,23.97
2018-07-09T10:32:44.656Z,24.10
2018-07-09T10:33:44.810Z,24.32
2018-07-09T10:34:44.972Z,24.49
2018-07-09T10:35:45.130Z,24.47
2018-07-09T10:36:45.288Z,24.76
2018-07-09T10:37:45.449Z,24.68
2018-07-09T10:38:45.614Z,24.59
2018-07-09T10:39:45.765Z,24.80
2018-07-09T10:40:45.928Z,24.92
2018-07-09T10:41:46.090Z,25.06
2018-07-09T10:42:46.251Z,25.17
2018-07-09T10:43:46.412Z,25.15
2018-07-09T10:44:46.570Z,25.15
2018-07-09T10:45:46.730Z,25.13
2018-07-09T10:46:46.891Z,25.13
2018-07-09T10:47:47.052Z,25.22
2018-07-09T10:48:47.212Z,25.30
2018-07-09T10:49:47.372Z,25.34
2018-07-09T10:50:47.533Z,25.37
2018-07-09T10:51:47.692Z,25.35
2018-07-09T10:52:47.852Z,25.34
2018-07-09T10:53:48.012Z,25.15
2018-07-09T10:54:48.174Z,24.97
2018-07-09T10:55:48.334Z,25.00
2018-07-09T10:56:48.494Z,24.94
2018-07-09T10:57:48.656Z,24.80
2018-07-09T10:58:48.817Z,24.82
2018-07-09T10:59:48.976Z,24.60
2018-07-09T11:00:49.150Z,24.49
2018-07-09T11:01:49.298Z,24.64
2018-07-09T11:02:49.460Z,24.91
2018-07-09T11:03:49.621Z,24.97
2018-07-09T11:04:49.782Z,25.19
2018-07-09T11:05:49.945Z,25.47
2018-07-09T11:06:50.106Z,25.59
2018-07-09T11:07:50.268Z,25.69
2018-07-09T11:08:50.425Z,25.54
2018-07-09T11:09:50.588Z,25.61
2018-07-09T11:10:50.749Z,25.64
2018-07-09T11:11:50.910Z,25.67
2018-07-09T11:12:51.074Z,25.31
2018-07-09T11:13:51.231Z,24.82
2018-07-09T11:14:51.393Z,24.69
2018-07-09T11:15:51.552Z,24.64
2018-07-09T11:16:51.711Z,24.59
2018-07-09T11:17:51.874Z,24.67
2018-07-09T11:18:52.034Z,24.77
2018-07-09T11:19:52.192Z,24.85
2018-07-09T11:20:52.353Z,25.00
2018-07-09T11:21:52.517Z,25.13
2018-07-09T11:22:52.674Z,25.16
2018-07-09T11:23:52.835Z,25.07
2018-07-09T11:24:52.998Z,24.97
2018-07-09T11:25:53.155Z,25.12
2018-07-09T11:26:53.318Z,25.32
2018-07-09T11:27:53.478Z,25.31
2018-07-09T11:28:53.637Z,25.17
2018-07-09T11:29:53.800Z,25.27
2018-07-09T11:30:53.958Z,25.30
2018-07-09T11:31:54.118Z,25.43
2018-07-09T11:32:54.276Z,25.31
2018-07-09T11:33:54.469Z,25.27
2018-07-09T11:34:54.597Z,25.13
2018-07-09T11:35:54.772Z,25.25
2018-07-09T11:36:54.920Z,25.39
2018-07-09T11:37:55.079Z,25.38
2018-07-09T11:38:55.238Z,25.50
2018-07-09T11:39:55.399Z,25.46
2018-07-09T11:40:55.562Z,25.20
2018-07-09T11:41:55.722Z,25.12
2018-07-09T11:42:55.884Z,24.97
2018-07-09T11:43:56.042Z,24.98
2018-07-09T11:44:56.211Z,25.12
2018-07-09T11:45:56.366Z,24.94
2018-07-09T11:46:56.524Z,25.27
2018-07-09T11:47:56.688Z,25.49
2018-07-09T11:48:56.851Z,25.37
2018-07-09T11:49:57.005Z,25.42
2018-07-09T11:50:57.169Z,25.52
2018-07-09T11:51:57.328Z,25.67
2018-07-09T11:52:57.490Z,25.91
2018-07-09T11:53:57.647Z,25.65
2018-07-09T11:54:57.809Z,25.89
2018-07-09T11:55:57.979Z,25.74
2018-07-09T11:56:58.127Z,25.89
2018-07-09T11:57:58.289Z,26.08
2018-07-09T11:58:58.512Z,26.18
2018-07-09T11:59:58.610Z,26.02
2018-07-09T12:00:58.771Z,25.65
2018-07-09T12:01:59.016Z,25.79
2018-07-09T12:02:59.101Z,25.64
2018-07-09T12:03:59.259Z,25.46
2018-07-09T12:04:59.420Z,25.44
2018-07-09T12:05:59.583Z,25.25
2018-07-09T12:06:59.742Z,25.54
2018-07-09T12:07:59.903Z,25.68
2018-07-09T12:09:00.066Z,26.02
2018-07-09T12:10:00.224Z,26.17
2018-07-09T12:11:00.386Z,26.32
2018-07-09T12:12:00.546Z,26.36
2018-07-09T12:13:00.710Z,26.46
2018-07-09T12:14:00.867Z,26.52
2018-07-09T12:15:01.031Z,26.64
2018-07-09T12:16:01.193Z,26.57
2018-07-09T12:17:01.358Z,26.42
2018-07-09T12:18:01.516Z,26.37
2018-07-09T12:19:01.678Z,26.20
2018-07-09T12:20:01.841Z,26.46
2018-07-09T12:21:02.002Z,26.39
2018-07-09T12:22:02.165Z,26.43
2018-07-09T12:23:02.329Z,26.46
2018-07-09T12:24:02.490Z,26.24
2018-07-09T12:25:02.654Z,25.98
2018-07-09T12:26:02.818Z,25.87
2018-07-09T12:27:02.979Z,26.08
2018-07-09T12:28:03.143Z,26.15
2018-07-09T12:29:03.318Z,26.29
2018-07-09T12:30:03.468Z,26.42
2018-07-09T12:31:03.629Z,26.62
2018-07-09T12:32:03.789Z,26.72
2018-07-09T12:33:03.955Z,26.62
2018-07-09T12:34:04.114Z,26.58
2018-07-09T12:35:04.276Z,26.73
2018-07-09T12:36:04.483Z,26.31
2018-07-09T12:37:04.602Z,25.86
2018-07-09T12:38:04.761Z,25.65
2018-07-09T12:39:04.925Z,25.64
2018-07-09T12:40:05.086Z,25.50
2018-07-09T12:41:05.249Z,25.50
2018-07-09T12:42:05.411Z,25.42
2018-07-09T12:43:05.573Z,25.46
2018-07-09T12:44:05.733Z,25.87
2018-07-09T12:45:05.896Z,26.08
2018-07-09T12:46:06.057Z,26.04
2018-07-09T12:47:06.217Z,26.20
2018-07-09T12:48:06.379Z,26.31
2018-07-09T12:49:06.540Z,26.08
2018-07-09T12:50:06.703Z,26.37
2018-07-09T12:51:06.865Z,26.36
2018-07-09T12:52:07.029Z,26.64
2018-07-09T12:53:07.189Z,26.89
2018-07-09T12:54:07.350Z,26.81
2018-07-09T12:55:07.514Z,26.83